ADDS METAR Data INFO
IDs: Format: Raw Decoded Include TAF

Data at: 1751 UTC 24 Mar 2017

Region: TOP
KATL 241652Z 15012G19KT 10SM FEW040 FEW075 SCT250 19/09 A3041 RMK AO2 SLP295 T01940089

KBOS 241719Z 21022G30KT 9SM -RA BKN029 OVC036 04/M02 A3031 RMK AO2 PK WND 20032/1657 SNE01 P0000 T00391017

KBWI 241654Z VRB06G17KT 10SM SCT048 SCT080 BKN230 08/02 A3035 RMK AO2 RAB11E21 SLP278 P0000 T00830022

KCLE 241651Z 22013G25KT 10SM OVC150 19/09 A3008 RMK AO2 PK WND 21031/1610 SLP187 T01940094

KCLT 241749Z 19016KT 10SM SCT043 SCT100 20/07 A3044 RMK AO2 WSHFT 1729

KCVG 241652Z 19015G21KT 10SM SCT150 BKN250 20/11 A3020 RMK AO2 SLP223 ACC E SE T02000106

KDCA 241652Z 21012G18KT 10SM BKN075 OVC095 09/04 A3036 RMK AO2 RAE10 SLP281 P0000 T00940044

KDEN 241653Z 36025G30KT 10SM FEW027 BKN036 OVC047 05/01 A3010 RMK AO2 PK WND 35032/1559 SLP176 T00500006

KDFW 241715Z 17010KT 10SM FEW035 BKN080 BKN120 16/11 A2986 RMK AO2 LTG DSNT NE-S T01560111

KDTW 241653Z 23019G25KT 9SM BKN085 OVC200 18/10 A3000 RMK AO2 PK WND 24033/1624 SLP162 T01830100 $

KEWR 241651Z 20015G22KT 10SM OVC060 09/M05 A3033 RMK AO2 RAB34E45 SLP268 P0000 T00891050

KFLL 241653Z 08018G25KT 10SM FEW027 BKN049 26/17 A3027 RMK AO2 PK WND 07028/1639 SLP249 T02560172

KIAD 241652Z 21014KT 10SM SCT080 BKN180 09/02 A3033 RMK AO2 SLP273 T00890022

KIAH 241653Z 16017G26KT 10SM BKN032 BKN200 OVC250 25/17 A3003 RMK AO2 PK WND 15032/1630 SLP167 T02500167

KJFK 241651Z 19019KT 10SM BKN070 OVC160 07/02 A3034 RMK AO2 PRESFR SLP275 T00720017

KLAS 241656Z VRB05KT 10SM FEW250 17/M01 A3022 RMK AO2 SLP222 T01671011

KLAX 241653Z 12004KT 9SM FEW022 FEW050 SCT160 SCT250 16/09 A3026 RMK AO2 SLP247 T01610094 $

KLGA 241651Z 20012G23KT 10SM BKN060 OVC250 09/M06 A3032 RMK AO2 SLP267 T00941056

KMCO 241653Z 07015G22KT 10SM BKN055 BKN070 25/12 A3034 RMK AO2 SLP273 T02500122

KMDW 241653Z 22023G30KT 10SM FEW250 23/09 A2993 RMK AO2 PK WND 21033/1622 SLP131 T02330094

KMEM 241745Z 18018G23KT 10SM SCT041 BKN050 OVC060 23/14 A3017 RMK AO2 T02330144

KMIA 241653Z COR 08019G26KT 10SM SCT026TCU BKN036 BKN070 25/18 A3027 RMK AO2 PK WND 08027/1633 RAB1559E48 SLP249 TCU ALQDS P0001 T02500178 $

KMSP 241710Z 03013KT 8SM BKN013 OVC018 05/02 A3002 RMK AO2 T00500017

KORD 241651Z 23016G24KT 10SM FEW075 FEW250 24/09 A2991 RMK AO2 PK WND 20030/1603 SLP126 T02390094

KPDX 241653Z 17008KT 10SM -RA FEW015 BKN042 OVC050 08/07 A2988 RMK AO2 SLP117 P0003 T00830072

KPHL 241654Z 22018G23KT 10SM BKN070 OVC090 11/M02 A3035 RMK AO2 SLP276 T01061022

KPHX 241651Z 08003KT 10SM CLR 17/03 A3022 RMK AO2 SLP225 T01720028

KPIT 241651Z 22014G22KT 10SM FEW090 OVC250 18/07 A3014 RMK AO2 PK WND 24029/1602 SLP214 T01830067

KSAN 241651Z 00000KT 10SM CLR 16/08 A3027 RMK AO2 SLP250 T01560078

KSEA 241653Z 19008G19KT 9SM -RA FEW010 BKN036 BKN200 08/06 A2980 RMK AO2 SLP099 P0006 T00830061

KSFO 241656Z 14014KT 1 3/4SM RA FEW003 OVC019 12/09 A3013 RMK AO2 SLP204 P0012 T01170089

KSLC 241654Z 15012KT 10SM FEW060 FEW200 09/03 A3022 RMK AO2 SLP228 T00890028

KSTL 241651Z 18020G27KT 10SM FEW045 BKN250 25/12 A2998 RMK AO2 PK WND 17031/1630 SLP145 T02500122

KTPA 241653Z 09010G17KT 050V120 10SM SCT050 26/12 A3032 RMK AO2 SLP265 T02560117


Page loaded:  17:51 UTC  |   10:51 AM Pacific  |   11:51 AM Mountain  |   12:51 PM Central  |   01:51 PM Eastern

 

ADVISORIES

FORECASTS

FORECASTS

OBSERVATIONS

USER TOOLS

ABOUT US